sensor_id;sensor_type;location;lat;lon;timestamp;temperature;humidity
814;DHT22;389;48.710;9.392;2024-02-28T00:01:37;8.60;99.40
814;DHT22;389;48.710;9.392;2024-02-28T00:04:14;8.70;99.30
814;DHT22;389;48.710;9.392;2024-02-28T00:07:02;8.70;99.30
814;DHT22;389;48.710;9.392;2024-02-28T00:09:37;8.80;99.60
814;DHT22;389;48.710;9.392;2024-02-28T00:12:25;8.70;99.20
814;DHT22;389;48.710;9.392;2024-02-28T00:14:57;8.70;99.20
814;DHT22;389;48.710;9.392;2024-02-28T00:17:29;8.70;99.20
814;DHT22;389;48.710;9.392;2024-02-28T00:19:58;8.80;99.20
814;DHT22;389;48.710;9.392;2024-02-28T00:22:27;8.80;99.20
814;DHT22;389;48.710;9.392;2024-02-28T00:24:54;8.60;99.10
814;DHT22;389;48.710;9.392;2024-02-28T00:27:35;8.80;99.20
814;DHT22;389;48.710;9.392;2024-02-28T00:30:19;8.70;99.10
814;DHT22;389;48.710;9.392;2024-02-28T00:32:51;8.80;99.10
814;DHT22;389;48.710;9.392;2024-02-28T00:35:46;8.80;99.00
814;DHT22;389;48.710;9.392;2024-02-28T00:38:19;8.80;99.00
814;DHT22;389;48.710;9.392;2024-02-28T00:41:29;8.90;99.00
814;DHT22;389;48.710;9.392;2024-02-28T00:44:05;8.90;99.00
814;DHT22;389;48.710;9.392;2024-02-28T00:50:00;8.70;99.00
814;DHT22;389;48.710;9.392;2024-02-28T00:52:29;8.90;99.20
814;DHT22;389;48.710;9.392;2024-02-28T00:55:03;8.80;99.10
814;DHT22;389;48.710;9.392;2024-02-28T00:57:32;8.80;99.10
814;DHT22;389;48.710;9.392;2024-02-28T01:00:14;8.80;99.10
814;DHT22;389;48.710;9.392;2024-02-28T01:02:46;8.80;99.10
814;DHT22;389;48.710;9.392;2024-02-28T01:10:36;8.80;99.00
814;DHT22;389;48.710;9.392;2024-02-28T01:13:36;8.80;99.00
814;DHT22;389;48.710;9.392;2024-02-28T01:16:28;8.90;99.00
814;DHT22;389;48.710;9.392;2024-02-28T01:19:17;8.70;98.90
814;DHT22;389;48.710;9.392;2024-02-28T01:29:02;8.90;98.90
814;DHT22;389;48.710;9.392;2024-02-28T01:34:51;8.90;98.90
814;DHT22;389;48.710;9.392;2024-02-28T01:38:01;8.90;98.90
814;DHT22;389;48.710;9.392;2024-02-28T01:41:09;8.90;98.90
814;DHT22;389;48.710;9.392;2024-02-28T01:47:08;8.90;98.90
814;DHT22;389;48.710;9.392;2024-02-28T01:50:16;8.90;98.90
814;DHT22;389;48.710;9.392;2024-02-28T01:55:36;8.90;98.90
814;DHT22;389;48.710;9.392;2024-02-28T01:58:29;8.80;98.90
814;DHT22;389;48.710;9.392;2024-02-28T02:07:06;8.90;98.80
814;DHT22;389;48.710;9.392;2024-02-28T02:09:46;8.90;98.70
814;DHT22;389;48.710;9.392;2024-02-28T02:12:13;8.90;98.70
814;DHT22;389;48.710;9.392;2024-02-28T02:17:41;8.90;98.60
814;DHT22;389;48.710;9.392;2024-02-28T02:20:46;8.80;98.40
814;DHT22;389;48.710;9.392;2024-02-28T02:29:51;8.70;98.10
814;DHT22;389;48.710;9.392;2024-02-28T02:32:35;8.90;98.30
814;DHT22;389;48.710;9.392;2024-02-28T02:35:47;8.90;98.20
814;DHT22;389;48.710;9.392;2024-02-28T02:38:53;8.90;98.20
814;DHT22;389;48.710;9.392;2024-02-28T02:41:49;8.90;98.20
814;DHT22;389;48.710;9.392;2024-02-28T02:58:53;8.90;98.20
814;DHT22;389;48.710;9.392;2024-02-28T03:36:48;8.80;98.30
814;DHT22;389;48.710;9.392;2024-02-28T03:39:54;8.80;98.30
814;DHT22;389;48.710;9.392;2024-02-28T04:01:35;8.80;98.20
814;DHT22;389;48.710;9.392;2024-02-28T04:04:48;8.70;98.20
814;DHT22;389;48.710;9.392;2024-02-28T04:11:14;8.60;98.10
814;DHT22;389;48.710;9.392;2024-02-28T04:16:27;8.70;98.10
814;DHT22;389;48.710;9.392;2024-02-28T04:18:53;8.70;98.10
814;DHT22;389;48.710;9.392;2024-02-28T04:21:18;8.80;98.10
814;DHT22;389;48.710;9.392;2024-02-28T04:23:44;8.70;98.10
814;DHT22;389;48.710;9.392;2024-02-28T04:26:10;8.70;98.10
814;DHT22;389;48.710;9.392;2024-02-28T04:28:35;8.70;98.20
814;DHT22;389;48.710;9.392;2024-02-28T04:31:01;8.60;98.10
814;DHT22;389;48.710;9.392;2024-02-28T04:33:26;8.60;98.10
814;DHT22;389;48.710;9.392;2024-02-28T04:35:52;8.70;98.10
814;DHT22;389;48.710;9.392;2024-02-28T04:38:17;8.60;98.10
814;DHT22;389;48.710;9.392;2024-02-28T04:40:43;8.60;98.10
814;DHT22;389;48.710;9.392;2024-02-28T04:43:09;8.60;98.10
814;DHT22;389;48.710;9.392;2024-02-28T04:45:34;8.60;98.10
814;DHT22;389;48.710;9.392;2024-02-28T04:48:01;8.60;98.10
814;DHT22;389;48.710;9.392;2024-02-28T04:50:26;8.60;98.00
814;DHT22;389;48.710;9.392;2024-02-28T04:52:52;8.60;98.00
814;DHT22;389;48.710;9.392;2024-02-28T04:55:17;8.60;97.90
814;DHT22;389;48.710;9.392;2024-02-28T04:57:43;8.60;97.90
814;DHT22;389;48.710;9.392;2024-02-28T05:00:09;8.60;97.90
814;DHT22;389;48.710;9.392;2024-02-28T05:02:35;8.60;97.90
814;DHT22;389;48.710;9.392;2024-02-28T05:05:00;8.60;97.90
814;DHT22;389;48.710;9.392;2024-02-28T05:07:26;8.60;97.90
814;DHT22;389;48.710;9.392;2024-02-28T05:09:51;8.60;97.80
814;DHT22;389;48.710;9.392;2024-02-28T05:12:17;8.60;97.80
814;DHT22;389;48.710;9.392;2024-02-28T05:14:42;8.60;97.80
814;DHT22;389;48.710;9.392;2024-02-28T05:17:08;8.70;97.90
814;DHT22;389;48.710;9.392;2024-02-28T05:19:33;8.60;97.90
814;DHT22;389;48.710;9.392;2024-02-28T05:21:59;8.60;97.90
814;DHT22;389;48.710;9.392;2024-02-28T05:24:26;8.70;98.00
814;DHT22;389;48.710;9.392;2024-02-28T05:26:52;8.60;98.00
814;DHT22;389;48.710;9.392;2024-02-28T05:29:17;8.60;98.00
814;DHT22;389;48.710;9.392;2024-02-28T05:31:43;8.60;98.40
814;DHT22;389;48.710;9.392;2024-02-28T05:34:08;8.70;98.20
814;DHT22;389;48.710;9.392;2024-02-28T05:36:34;8.70;98.20
814;DHT22;389;48.710;9.392;2024-02-28T05:39:00;8.60;98.20
814;DHT22;389;48.710;9.392;2024-02-28T05:41:27;8.50;98.10
814;DHT22;389;48.710;9.392;2024-02-28T05:43:53;8.60;98.20
814;DHT22;389;48.710;9.392;2024-02-28T05:46:19;8.60;98.10
814;DHT22;389;48.710;9.392;2024-02-28T05:48:44;8.60;98.10
814;DHT22;389;48.710;9.392;2024-02-28T05:51:11;8.60;98.10
814;DHT22;389;48.710;9.392;2024-02-28T05:53:37;8.50;98.10
814;DHT22;389;48.710;9.392;2024-02-28T05:56:07;8.50;98.20
814;DHT22;389;48.710;9.392;2024-02-28T05:58:43;8.50;98.20
814;DHT22;389;48.710;9.392;2024-02-28T06:01:16;8.50;98.30
814;DHT22;389;48.710;9.392;2024-02-28T06:03:42;8.50;98.30
814;DHT22;389;48.710;9.392;2024-02-28T06:06:10;8.50;98.30
814;DHT22;389;48.710;9.392;2024-02-28T06:08:38;8.50;98.40
814;DHT22;389;48.710;9.392;2024-02-28T06:11:04;8.50;98.40
814;DHT22;389;48.710;9.392;2024-02-28T06:13:30;8.50;98.70
814;DHT22;389;48.710;9.392;2024-02-28T06:15:56;8.50;98.50
814;DHT22;389;48.710;9.392;2024-02-28T06:18:23;8.50;98.70
814;DHT22;389;48.710;9.392;2024-02-28T06:20:49;8.50;98.40
814;DHT22;389;48.710;9.392;2024-02-28T06:23:17;8.50;98.40
814;DHT22;389;48.710;9.392;2024-02-28T06:25:43;8.50;98.40
814;DHT22;389;48.710;9.392;2024-02-28T06:28:09;8.40;98.30
814;DHT22;389;48.710;9.392;2024-02-28T06:30:35;8.40;98.40
814;DHT22;389;48.710;9.392;2024-02-28T06:33:01;8.40;98.40
814;DHT22;389;48.710;9.392;2024-02-28T06:35:27;8.50;98.40
814;DHT22;389;48.710;9.392;2024-02-28T06:37:52;8.40;98.30
814;DHT22;389;48.710;9.392;2024-02-28T06:40:18;8.40;98.30
814;DHT22;389;48.710;9.392;2024-02-28T06:42:43;8.40;98.30
814;DHT22;389;48.710;9.392;2024-02-28T06:45:09;8.40;98.40
814;DHT22;389;48.710;9.392;2024-02-28T06:47:35;8.40;98.30
814;DHT22;389;48.710;9.392;2024-02-28T06:50:05;8.40;98.30
814;DHT22;389;48.710;9.392;2024-02-28T06:52:32;8.40;98.30
814;DHT22;389;48.710;9.392;2024-02-28T06:54:58;8.40;98.30
814;DHT22;389;48.710;9.392;2024-02-28T06:57:25;8.40;98.40
814;DHT22;389;48.710;9.392;2024-02-28T06:59:51;8.40;98.40
814;DHT22;389;48.710;9.392;2024-02-28T07:02:16;8.40;98.60
814;DHT22;389;48.710;9.392;2024-02-28T07:04:42;8.40;98.50
814;DHT22;389;48.710;9.392;2024-02-28T07:07:07;8.40;98.50
814;DHT22;389;48.710;9.392;2024-02-28T07:09:33;8.40;98.50
814;DHT22;389;48.710;9.392;2024-02-28T07:11:59;8.40;98.50
814;DHT22;389;48.710;9.392;2024-02-28T07:14:26;8.40;98.50
814;DHT22;389;48.710;9.392;2024-02-28T07:16:51;8.50;98.50
814;DHT22;389;48.710;9.392;2024-02-28T07:19:17;8.50;98.40
814;DHT22;389;48.710;9.392;2024-02-28T07:21:43;8.50;98.30
814;DHT22;389;48.710;9.392;2024-02-28T07:24:09;8.60;98.30
814;DHT22;389;48.710;9.392;2024-02-28T07:26:35;8.60;98.20
814;DHT22;389;48.710;9.392;2024-02-28T07:29:00;8.70;98.10
814;DHT22;389;48.710;9.392;2024-02-28T07:31:27;8.70;98.00
814;DHT22;389;48.710;9.392;2024-02-28T07:33:52;8.70;97.90
814;DHT22;389;48.710;9.392;2024-02-28T07:36:19;8.80;98.00
814;DHT22;389;48.710;9.392;2024-02-28T07:38:45;8.90;98.00
814;DHT22;389;48.710;9.392;2024-02-28T07:41:10;8.90;97.80
814;DHT22;389;48.710;9.392;2024-02-28T07:43:36;8.90;97.80
814;DHT22;389;48.710;9.392;2024-02-28T07:46:08;8.90;97.80
814;DHT22;389;48.710;9.392;2024-02-28T07:48:34;8.90;97.70
814;DHT22;389;48.710;9.392;2024-02-28T07:50:59;8.90;97.60
814;DHT22;389;48.710;9.392;2024-02-28T08:39:34;8.50;98.60
814;DHT22;389;48.710;9.392;2024-02-28T08:41:59;8.70;98.00
814;DHT22;389;48.710;9.392;2024-02-28T08:44:25;8.80;97.80
814;DHT22;389;48.710;9.392;2024-02-28T08:46:50;8.90;97.60
814;DHT22;389;48.710;9.392;2024-02-28T08:49:16;9.00;97.40
814;DHT22;389;48.710;9.392;2024-02-28T08:51:42;9.00;97.20
814;DHT22;389;48.710;9.392;2024-02-28T08:54:08;9.10;97.10
814;DHT22;389;48.710;9.392;2024-02-28T08:56:34;9.10;97.00
814;DHT22;389;48.710;9.392;2024-02-28T08:58:59;9.20;96.90
814;DHT22;389;48.710;9.392;2024-02-28T09:01:32;9.20;96.80
814;DHT22;389;48.710;9.392;2024-02-28T09:04:00;9.30;96.80
814;DHT22;389;48.710;9.392;2024-02-28T09:06:25;9.40;96.70
814;DHT22;389;48.710;9.392;2024-02-28T09:08:51;9.40;96.50
814;DHT22;389;48.710;9.392;2024-02-28T09:11:16;9.40;96.40
814;DHT22;389;48.710;9.392;2024-02-28T09:13:42;9.50;96.20
814;DHT22;389;48.710;9.392;2024-02-28T09:16:07;9.50;96.00
814;DHT22;389;48.710;9.392;2024-02-28T09:18:33;9.50;96.00
814;DHT22;389;48.710;9.392;2024-02-28T09:20:59;9.50;95.90
814;DHT22;389;48.710;9.392;2024-02-28T09:23:25;9.50;96.00
814;DHT22;389;48.710;9.392;2024-02-28T09:25:50;9.50;95.90
814;DHT22;389;48.710;9.392;2024-02-28T09:28:16;9.50;95.90
814;DHT22;389;48.710;9.392;2024-02-28T09:30:42;9.50;96.00
814;DHT22;389;48.710;9.392;2024-02-28T09:33:08;9.50;95.80
814;DHT22;389;48.710;9.392;2024-02-28T09:35:37;9.50;95.70
814;DHT22;389;48.710;9.392;2024-02-28T09:38:03;9.50;95.80
814;DHT22;389;48.710;9.392;2024-02-28T09:40:29;9.50;95.80
814;DHT22;389;48.710;9.392;2024-02-28T09:43:00;9.40;95.90
814;DHT22;389;48.710;9.392;2024-02-28T09:45:27;9.40;96.00
814;DHT22;389;48.710;9.392;2024-02-28T09:47:56;9.40;96.00
814;DHT22;389;48.710;9.392;2024-02-28T09:50:22;9.50;95.90
814;DHT22;389;48.710;9.392;2024-02-28T09:52:48;9.50;95.80
814;DHT22;389;48.710;9.392;2024-02-28T09:55:13;9.50;95.60
814;DHT22;389;48.710;9.392;2024-02-28T09:57:39;9.60;95.50
814;DHT22;389;48.710;9.392;2024-02-28T10:00:05;9.60;95.50
814;DHT22;389;48.710;9.392;2024-02-28T10:02:32;9.60;95.40
814;DHT22;389;48.710;9.392;2024-02-28T10:04:59;9.60;95.40
814;DHT22;389;48.710;9.392;2024-02-28T10:07:26;9.60;95.40
814;DHT22;389;48.710;9.392;2024-02-28T10:09:52;9.60;95.40
814;DHT22;389;48.710;9.392;2024-02-28T10:12:18;9.60;95.20
814;DHT22;389;48.710;9.392;2024-02-28T10:14:44;9.60;95.30
814;DHT22;389;48.710;9.392;2024-02-28T10:17:10;9.60;95.20
814;DHT22;389;48.710;9.392;2024-02-28T10:19:35;9.70;95.30
814;DHT22;389;48.710;9.392;2024-02-28T10:22:01;9.80;95.10
814;DHT22;389;48.710;9.392;2024-02-28T10:24:27;9.90;95.00
814;DHT22;389;48.710;9.392;2024-02-28T10:26:52;9.90;95.00
814;DHT22;389;48.710;9.392;2024-02-28T10:29:24;9.90;94.90
814;DHT22;389;48.710;9.392;2024-02-28T10:31:55;10.10;94.30
814;DHT22;389;48.710;9.392;2024-02-28T10:34:21;10.20;94.10
814;DHT22;389;48.710;9.392;2024-02-28T10:36:47;10.30;93.90
814;DHT22;389;48.710;9.392;2024-02-28T10:39:14;10.30;93.60
814;DHT22;389;48.710;9.392;2024-02-28T10:41:39;10.40;93.50
814;DHT22;389;48.710;9.392;2024-02-28T10:44:05;10.50;93.40
814;DHT22;389;48.710;9.392;2024-02-28T10:46:31;10.60;93.30
814;DHT22;389;48.710;9.392;2024-02-28T10:48:57;10.70;93.20
814;DHT22;389;48.710;9.392;2024-02-28T10:51:26;10.80;92.90
814;DHT22;389;48.710;9.392;2024-02-28T10:56:31;11.10;92.80
814;DHT22;389;48.710;9.392;2024-02-28T10:58:59;11.10;92.50
814;DHT22;389;48.710;9.392;2024-02-28T11:01:25;11.20;92.30
814;DHT22;389;48.710;9.392;2024-02-28T11:03:51;11.10;92.00
814;DHT22;389;48.710;9.392;2024-02-28T11:06:18;11.20;92.10
814;DHT22;389;48.710;9.392;2024-02-28T11:08:48;11.10;92.30
814;DHT22;389;48.710;9.392;2024-02-28T11:11:18;11.10;92.00
814;DHT22;389;48.710;9.392;2024-02-28T11:13:56;11.20;91.90
814;DHT22;389;48.710;9.392;2024-02-28T11:16:29;11.20;91.90
814;DHT22;389;48.710;9.392;2024-02-28T11:18:55;11.10;91.90
814;DHT22;389;48.710;9.392;2024-02-28T11:21:25;11.10;92.00
814;DHT22;389;48.710;9.392;2024-02-28T11:23:52;11.20;91.90
814;DHT22;389;48.710;9.392;2024-02-28T11:26:18;11.20;91.80
814;DHT22;389;48.710;9.392;2024-02-28T11:28:44;11.20;91.70
814;DHT22;389;48.710;9.392;2024-02-28T11:31:09;11.40;91.80
814;DHT22;389;48.710;9.392;2024-02-28T11:33:39;11.30;91.60
814;DHT22;389;48.710;9.392;2024-02-28T11:36:06;11.30;91.60
814;DHT22;389;48.710;9.392;2024-02-28T11:38:34;11.30;91.70
814;DHT22;389;48.710;9.392;2024-02-28T11:40:59;11.30;91.70
814;DHT22;389;48.710;9.392;2024-02-28T11:43:25;11.20;91.60
814;DHT22;389;48.710;9.392;2024-02-28T11:45:50;11.10;91.50
814;DHT22;389;48.710;9.392;2024-02-28T11:48:16;11.10;91.70
814;DHT22;389;48.710;9.392;2024-02-28T11:50:42;11.10;91.80
814;DHT22;389;48.710;9.392;2024-02-28T11:53:08;11.00;91.70
814;DHT22;389;48.710;9.392;2024-02-28T11:55:34;11.00;92.00
814;DHT22;389;48.710;9.392;2024-02-28T11:58:00;10.90;92.20
814;DHT22;389;48.710;9.392;2024-02-28T12:00:26;10.90;92.00
814;DHT22;389;48.710;9.392;2024-02-28T12:02:52;10.90;92.00
814;DHT22;389;48.710;9.392;2024-02-28T12:05:19;10.80;92.00
814;DHT22;389;48.710;9.392;2024-02-28T12:07:45;10.70;91.90
814;DHT22;389;48.710;9.392;2024-02-28T12:10:10;10.60;92.00
814;DHT22;389;48.710;9.392;2024-02-28T12:12:38;10.60;92.20
814;DHT22;389;48.710;9.392;2024-02-28T12:15:05;10.50;92.40
814;DHT22;389;48.710;9.392;2024-02-28T12:17:31;10.50;92.50
814;DHT22;389;48.710;9.392;2024-02-28T12:19:59;10.40;92.60
814;DHT22;389;48.710;9.392;2024-02-28T12:22:25;10.40;92.70
814;DHT22;389;48.710;9.392;2024-02-28T12:24:51;10.40;92.70
814;DHT22;389;48.710;9.392;2024-02-28T12:27:16;10.40;92.70
814;DHT22;389;48.710;9.392;2024-02-28T12:29:42;10.40;92.80
814;DHT22;389;48.710;9.392;2024-02-28T12:32:09;10.40;92.90
814;DHT22;389;48.710;9.392;2024-02-28T12:34:34;10.30;93.10
814;DHT22;389;48.710;9.392;2024-02-28T12:37:01;10.30;93.00
814;DHT22;389;48.710;9.392;2024-02-28T12:39:26;10.30;93.10
814;DHT22;389;48.710;9.392;2024-02-28T12:41:52;10.20;93.00
814;DHT22;389;48.710;9.392;2024-02-28T12:44:18;10.20;93.10
814;DHT22;389;48.710;9.392;2024-02-28T12:46:43;10.20;93.20
814;DHT22;389;48.710;9.392;2024-02-28T12:49:09;10.20;93.10
814;DHT22;389;48.710;9.392;2024-02-28T12:51:42;10.20;93.20
814;DHT22;389;48.710;9.392;2024-02-28T12:54:09;10.20;93.20
814;DHT22;389;48.710;9.392;2024-02-28T12:56:39;10.20;93.10
814;DHT22;389;48.710;9.392;2024-02-28T12:59:05;10.20;93.30
814;DHT22;389;48.710;9.392;2024-02-28T13:01:35;10.20;93.30
814;DHT22;389;48.710;9.392;2024-02-28T13:04:00;10.20;93.10
814;DHT22;389;48.710;9.392;2024-02-28T13:09:49;10.20;93.20
814;DHT22;389;48.710;9.392;2024-02-28T13:12:15;10.10;93.00
814;DHT22;389;48.710;9.392;2024-02-28T13:14:41;10.10;93.10
814;DHT22;389;48.710;9.392;2024-02-28T13:17:06;10.00;93.20
814;DHT22;389;48.710;9.392;2024-02-28T13:19:32;10.00;93.30
814;DHT22;389;48.710;9.392;2024-02-28T13:22:01;10.10;93.30
814;DHT22;389;48.710;9.392;2024-02-28T13:24:26;10.00;93.20
814;DHT22;389;48.710;9.392;2024-02-28T13:26:55;10.00;93.20
814;DHT22;389;48.710;9.392;2024-02-28T13:29:20;10.10;93.30
814;DHT22;389;48.710;9.392;2024-02-28T13:31:46;10.00;93.30
814;DHT22;389;48.710;9.392;2024-02-28T13:34:12;10.00;93.30
814;DHT22;389;48.710;9.392;2024-02-28T13:36:38;9.90;93.90
814;DHT22;389;48.710;9.392;2024-02-28T13:39:08;10.00;93.30
814;DHT22;389;48.710;9.392;2024-02-28T13:41:40;10.00;93.30
814;DHT22;389;48.710;9.392;2024-02-28T13:44:23;10.00;93.20
814;DHT22;389;48.710;9.392;2024-02-28T13:46:53;10.00;93.20
814;DHT22;389;48.710;9.392;2024-02-28T13:49:42;9.90;93.80
814;DHT22;389;48.710;9.392;2024-02-28T13:52:37;9.80;94.00
814;DHT22;389;48.710;9.392;2024-02-28T13:55:47;9.60;94.30
814;DHT22;389;48.710;9.392;2024-02-28T14:01:25;9.60;94.10
814;DHT22;389;48.710;9.392;2024-02-28T14:04:10;9.80;94.10
814;DHT22;389;48.710;9.392;2024-02-28T14:06:41;9.80;94.10
814;DHT22;389;48.710;9.392;2024-02-28T14:09:24;9.80;94.00
814;DHT22;389;48.710;9.392;2024-02-28T14:11:52;9.90;93.90
814;DHT22;389;48.710;9.392;2024-02-28T14:14:18;9.90;93.90
814;DHT22;389;48.710;9.392;2024-02-28T14:16:47;9.80;93.80
814;DHT22;389;48.710;9.392;2024-02-28T14:19:15;9.90;93.80
814;DHT22;389;48.710;9.392;2024-02-28T14:21:44;10.00;93.30
814;DHT22;389;48.710;9.392;2024-02-28T14:24:09;10.00;93.10
814;DHT22;389;48.710;9.392;2024-02-28T14:26:35;10.00;93.10
814;DHT22;389;48.710;9.392;2024-02-28T14:29:00;10.00;93.00
814;DHT22;389;48.710;9.392;2024-02-28T14:31:26;10.20;93.00
814;DHT22;389;48.710;9.392;2024-02-28T14:33:52;10.10;92.80
814;DHT22;389;48.710;9.392;2024-02-28T14:36:19;10.10;92.80
814;DHT22;389;48.710;9.392;2024-02-28T14:38:45;10.00;92.90
814;DHT22;389;48.710;9.392;2024-02-28T14:41:11;10.00;92.90
814;DHT22;389;48.710;9.392;2024-02-28T14:43:38;10.00;92.90
814;DHT22;389;48.710;9.392;2024-02-28T14:46:03;10.00;92.90
814;DHT22;389;48.710;9.392;2024-02-28T14:48:29;10.00;92.90
814;DHT22;389;48.710;9.392;2024-02-28T14:50:56;10.10;92.80
814;DHT22;389;48.710;9.392;2024-02-28T14:53:22;10.10;92.80
814;DHT22;389;48.710;9.392;2024-02-28T14:55:48;10.20;92.80
814;DHT22;389;48.710;9.392;2024-02-28T14:58:14;10.20;92.70
814;DHT22;389;48.710;9.392;2024-02-28T15:00:40;10.20;92.70
814;DHT22;389;48.710;9.392;2024-02-28T15:03:05;10.30;92.70
814;DHT22;389;48.710;9.392;2024-02-28T15:05:31;10.40;93.00
814;DHT22;389;48.710;9.392;2024-02-28T15:07:56;10.30;92.60
814;DHT22;389;48.710;9.392;2024-02-28T15:10:22;10.40;92.70
814;DHT22;389;48.710;9.392;2024-02-28T15:12:47;10.40;92.70
814;DHT22;389;48.710;9.392;2024-02-28T15:15:13;10.40;92.60
814;DHT22;389;48.710;9.392;2024-02-28T15:17:40;10.50;92.60
814;DHT22;389;48.710;9.392;2024-02-28T15:20:06;10.50;92.50
814;DHT22;389;48.710;9.392;2024-02-28T15:22:33;10.60;92.40
814;DHT22;389;48.710;9.392;2024-02-28T15:24:59;10.60;92.30
814;DHT22;389;48.710;9.392;2024-02-28T15:27:25;10.60;92.30
814;DHT22;389;48.710;9.392;2024-02-28T15:29:50;10.60;92.30
814;DHT22;389;48.710;9.392;2024-02-28T15:32:16;10.60;92.50
814;DHT22;389;48.710;9.392;2024-02-28T15:34:41;10.60;92.20
814;DHT22;389;48.710;9.392;2024-02-28T15:37:07;10.50;92.20
814;DHT22;389;48.710;9.392;2024-02-28T15:39:34;10.50;92.30
814;DHT22;389;48.710;9.392;2024-02-28T15:42:00;10.50;92.30
814;DHT22;389;48.710;9.392;2024-02-28T15:44:26;10.50;92.30
814;DHT22;389;48.710;9.392;2024-02-28T15:46:52;10.50;92.40
814;DHT22;389;48.710;9.392;2024-02-28T15:49:17;10.60;92.40
814;DHT22;389;48.710;9.392;2024-02-28T15:51:44;10.50;92.40
814;DHT22;389;48.710;9.392;2024-02-28T15:54:10;10.40;92.40
814;DHT22;389;48.710;9.392;2024-02-28T15:56:36;10.40;92.40
814;DHT22;389;48.710;9.392;2024-02-28T15:59:03;10.40;92.50
814;DHT22;389;48.710;9.392;2024-02-28T16:01:30;10.40;92.50
814;DHT22;389;48.710;9.392;2024-02-28T16:03:56;10.30;92.60
814;DHT22;389;48.710;9.392;2024-02-28T16:06:22;10.30;92.70
814;DHT22;389;48.710;9.392;2024-02-28T16:08:49;10.40;92.80
814;DHT22;389;48.710;9.392;2024-02-28T16:11:15;10.20;92.70
814;DHT22;389;48.710;9.392;2024-02-28T16:13:40;10.20;92.70
814;DHT22;389;48.710;9.392;2024-02-28T16:16:08;10.20;92.80
814;DHT22;389;48.710;9.392;2024-02-28T16:18:34;10.10;92.90
814;DHT22;389;48.710;9.392;2024-02-28T16:20:59;10.10;93.00
814;DHT22;389;48.710;9.392;2024-02-28T16:23:26;10.00;93.10
814;DHT22;389;48.710;9.392;2024-02-28T16:25:51;10.00;93.10
814;DHT22;389;48.710;9.392;2024-02-28T16:28:27;10.00;93.00
814;DHT22;389;48.710;9.392;2024-02-28T16:30:53;10.00;92.70
814;DHT22;389;48.710;9.392;2024-02-28T16:33:19;9.90;93.20
814;DHT22;389;48.710;9.392;2024-02-28T16:35:46;9.90;93.20
814;DHT22;389;48.710;9.392;2024-02-28T16:38:12;9.80;93.20
814;DHT22;389;48.710;9.392;2024-02-28T16:40:37;9.80;93.20
814;DHT22;389;48.710;9.392;2024-02-28T16:43:03;9.80;93.30
814;DHT22;389;48.710;9.392;2024-02-28T16:45:29;9.70;93.40
814;DHT22;389;48.710;9.392;2024-02-28T16:47:54;9.70;93.50
814;DHT22;389;48.710;9.392;2024-02-28T16:50:20;9.70;93.60
814;DHT22;389;48.710;9.392;2024-02-28T16:52:45;9.70;93.60
814;DHT22;389;48.710;9.392;2024-02-28T16:55:11;9.60;93.60
814;DHT22;389;48.710;9.392;2024-02-28T16:57:40;9.60;93.80
814;DHT22;389;48.710;9.392;2024-02-28T17:00:06;9.60;93.90
814;DHT22;389;48.710;9.392;2024-02-28T17:02:38;9.60;94.10
814;DHT22;389;48.710;9.392;2024-02-28T17:05:04;9.60;94.20
814;DHT22;389;48.710;9.392;2024-02-28T17:07:30;9.60;94.30
814;DHT22;389;48.710;9.392;2024-02-28T17:09:56;9.60;94.30
814;DHT22;389;48.710;9.392;2024-02-28T17:12:22;9.60;94.40
814;DHT22;389;48.710;9.392;2024-02-28T17:14:48;9.60;94.40
814;DHT22;389;48.710;9.392;2024-02-28T17:17:13;9.60;94.40
814;DHT22;389;48.710;9.392;2024-02-28T17:19:40;9.60;94.40
814;DHT22;389;48.710;9.392;2024-02-28T17:22:05;9.60;94.40
814;DHT22;389;48.710;9.392;2024-02-28T17:24:32;9.50;94.40
814;DHT22;389;48.710;9.392;2024-02-28T17:26:59;9.50;94.30
814;DHT22;389;48.710;9.392;2024-02-28T17:29:25;9.40;94.30
814;DHT22;389;48.710;9.392;2024-02-28T17:31:50;9.40;94.30
814;DHT22;389;48.710;9.392;2024-02-28T17:34:17;9.40;94.20
814;DHT22;389;48.710;9.392;2024-02-28T17:36:42;9.40;94.20
814;DHT22;389;48.710;9.392;2024-02-28T17:39:08;9.40;94.50
814;DHT22;389;48.710;9.392;2024-02-28T17:41:35;9.40;94.10
814;DHT22;389;48.710;9.392;2024-02-28T17:44:01;9.50;94.20
814;DHT22;389;48.710;9.392;2024-02-28T17:46:27;9.40;94.10
814;DHT22;389;48.710;9.392;2024-02-28T17:48:52;9.40;94.10
814;DHT22;389;48.710;9.392;2024-02-28T17:51:19;9.40;94.00
814;DHT22;389;48.710;9.392;2024-02-28T17:53:44;9.50;94.00
814;DHT22;389;48.710;9.392;2024-02-28T17:56:10;9.40;93.90
814;DHT22;389;48.710;9.392;2024-02-28T17:58:36;9.40;93.90
814;DHT22;389;48.710;9.392;2024-02-28T18:01:02;9.50;93.90
814;DHT22;389;48.710;9.392;2024-02-28T18:03:31;9.40;94.00
814;DHT22;389;48.710;9.392;2024-02-28T18:05:56;9.40;94.10
814;DHT22;389;48.710;9.392;2024-02-28T18:08:22;9.40;94.20
814;DHT22;389;48.710;9.392;2024-02-28T18:10:48;9.40;94.20
814;DHT22;389;48.710;9.392;2024-02-28T18:13:13;9.40;94.20
814;DHT22;389;48.710;9.392;2024-02-28T18:15:43;9.40;94.20
814;DHT22;389;48.710;9.392;2024-02-28T18:18:08;9.40;94.10
814;DHT22;389;48.710;9.392;2024-02-28T18:20:34;9.30;94.10
814;DHT22;389;48.710;9.392;2024-02-28T18:22:59;9.30;94.10
814;DHT22;389;48.710;9.392;2024-02-28T18:25:25;9.30;94.20
814;DHT22;389;48.710;9.392;2024-02-28T18:27:50;9.40;94.20
814;DHT22;389;48.710;9.392;2024-02-28T18:30:16;9.30;94.20
814;DHT22;389;48.710;9.392;2024-02-28T18:32:45;9.30;94.30
814;DHT22;389;48.710;9.392;2024-02-28T18:35:13;9.30;94.30
814;DHT22;389;48.710;9.392;2024-02-28T18:37:39;9.30;94.30
814;DHT22;389;48.710;9.392;2024-02-28T18:40:08;9.30;94.30
814;DHT22;389;48.710;9.392;2024-02-28T18:42:37;9.30;94.30
814;DHT22;389;48.710;9.392;2024-02-28T18:45:04;9.30;94.40
814;DHT22;389;48.710;9.392;2024-02-28T18:47:32;9.40;94.40
814;DHT22;389;48.710;9.392;2024-02-28T18:49:57;9.40;94.50
814;DHT22;389;48.710;9.392;2024-02-28T18:52:23;9.40;94.40
814;DHT22;389;48.710;9.392;2024-02-28T18:54:49;9.40;94.40
814;DHT22;389;48.710;9.392;2024-02-28T18:57:14;9.40;94.50
814;DHT22;389;48.710;9.392;2024-02-28T18:59:40;9.40;94.50
814;DHT22;389;48.710;9.392;2024-02-28T19:02:06;9.40;94.50
814;DHT22;389;48.710;9.392;2024-02-28T19:04:31;9.30;94.50
814;DHT22;389;48.710;9.392;2024-02-28T19:06:57;9.30;94.50
814;DHT22;389;48.710;9.392;2024-02-28T19:09:23;9.30;94.50
814;DHT22;389;48.710;9.392;2024-02-28T19:11:49;9.30;94.50
814;DHT22;389;48.710;9.392;2024-02-28T19:14:14;9.30;94.50
814;DHT22;389;48.710;9.392;2024-02-28T19:16:40;9.30;94.90
814;DHT22;389;48.710;9.392;2024-02-28T19:19:05;9.30;94.60
814;DHT22;389;48.710;9.392;2024-02-28T19:21:34;9.30;94.70
814;DHT22;389;48.710;9.392;2024-02-28T19:24:00;9.30;94.70
814;DHT22;389;48.710;9.392;2024-02-28T19:26:28;9.30;95.00
814;DHT22;389;48.710;9.392;2024-02-28T19:28:55;9.30;94.70
814;DHT22;389;48.710;9.392;2024-02-28T19:31:21;9.30;94.70
814;DHT22;389;48.710;9.392;2024-02-28T19:33:46;9.40;94.70
814;DHT22;389;48.710;9.392;2024-02-28T19:36:12;9.30;94.70
814;DHT22;389;48.710;9.392;2024-02-28T19:38:37;9.30;94.70
814;DHT22;389;48.710;9.392;2024-02-28T19:41:03;9.30;94.70
814;DHT22;389;48.710;9.392;2024-02-28T19:43:29;9.30;94.70
814;DHT22;389;48.710;9.392;2024-02-28T19:45:56;9.30;94.70
814;DHT22;389;48.710;9.392;2024-02-28T19:48:22;9.30;94.70